Time;durP1;ratioP1;P1;durP2;ratioP2;P2;SDS_P1;SDS_P2;PMS_P1;PMS_P2;Temp;Humidity;BMP_temperature;BMP_pressure;BME280_temperature;BME280_humidity;BME280_pressure;Samples;Min_cycle;Max_cycle;Signal;HPM_P1;HPM_P2
2023/07/13 00:01:49;;;;;;;27.98;5.35;;;17.90;99.90;;;;;;5007752;28;20359;-70
2023/07/13 00:04:20;;;;;;;22.80;4.80;;;17.90;99.90;;;;;;5003921;28;20069;-69
2023/07/13 00:06:47;;;;;;;24.00;5.30;;;17.90;99.90;;;;;;4999365;28;20038;-68
2023/07/13 00:09:17;;;;;;;24.23;5.10;;;18.00;99.90;;;;;;5005185;28;20378;-69
2023/07/13 00:11:44;;;;;;;21.83;4.57;;;18.00;99.90;;;;;;5008103;28;20398;-70
2023/07/13 00:14:10;;;;;;;27.05;4.97;;;18.00;99.90;;;;;;5005808;28;20034;-69
2023/07/13 00:16:38;;;;;;;22.23;4.13;;;18.00;99.90;;;;;;5001115;28;20118;-69
2023/07/13 00:19:05;;;;;;;22.27;4.30;;;18.10;99.90;;;;;;4997184;28;20069;-68
2023/07/13 00:21:31;;;;;;;16.20;3.53;;;18.10;99.90;;;;;;5008837;28;20041;-68
2023/07/13 00:23:57;;;;;;;14.18;3.95;;;18.10;99.90;;;;;;5004240;28;20030;-71
2023/07/13 00:26:22;;;;;;;11.43;2.65;;;18.10;99.90;;;;;;5001787;28;20375;-69
2023/07/13 00:28:48;;;;;;;15.18;2.83;;;18.00;99.90;;;;;;5005749;28;20030;-69
2023/07/13 00:31:17;;;;;;;14.23;2.80;;;18.10;99.90;;;;;;5011152;28;20030;-69
2023/07/13 00:33:43;;;;;;;14.23;2.58;;;18.10;99.90;;;;;;5002621;28;20030;-69
2023/07/13 00:36:10;;;;;;;11.77;2.08;;;18.00;99.90;;;;;;5006589;28;20029;-70
2023/07/13 00:38:36;;;;;;;12.45;2.13;;;18.00;99.90;;;;;;4994214;28;20031;-70
2023/07/13 00:41:03;;;;;;;8.82;2.17;;;18.00;99.90;;;;;;5010177;28;20084;-68
2023/07/13 00:43:29;;;;;;;11.30;2.20;;;17.90;99.90;;;;;;5000272;28;20462;-68
2023/07/13 00:46:00;;;;;;;12.07;1.73;;;17.90;99.90;;;;;;5006227;28;20027;-69
2023/07/13 00:48:30;;;;;;;7.60;2.20;;;17.90;99.90;;;;;;5007703;28;20025;-69
2023/07/13 00:51:00;;;;;;;6.38;1.98;;;17.90;99.90;;;;;;4998019;28;20526;-69
2023/07/13 00:53:28;;;;;;;8.13;1.73;;;17.90;99.90;;;;;;5010000;28;20061;-69
2023/07/13 00:55:56;;;;;;;12.27;2.20;;;17.90;99.90;;;;;;4994301;28;20113;-69
2023/07/13 00:58:22;;;;;;;8.13;2.13;;;17.80;99.90;;;;;;5007291;28;20036;-69
2023/07/13 01:00:49;;;;;;;7.55;1.95;;;17.80;99.90;;;;;;4998539;28;20117;-69
2023/07/13 01:03:15;;;;;;;11.48;2.40;;;17.80;99.90;;;;;;5010336;28;20087;-71
2023/07/13 01:05:41;;;;;;;7.70;2.20;;;17.70;99.90;;;;;;5005360;28;20026;-68
2023/07/13 01:08:08;;;;;;;11.63;1.80;;;17.70;99.90;;;;;;5007391;28;20065;-68
2023/07/13 01:10:38;;;;;;;10.32;2.22;;;17.60;99.90;;;;;;4999994;28;20035;-68
2023/07/13 01:13:06;;;;;;;9.48;2.20;;;17.60;99.90;;;;;;5004387;28;20502;-69
2023/07/13 01:15:41;;;;;;;13.50;2.25;;;17.50;99.90;;;;;;5012104;28;20026;-69
2023/07/13 01:18:15;;;;;;;11.77;1.98;;;17.50;99.90;;;;;;5011169;28;20034;-69
2023/07/13 01:20:41;;;;;;;10.25;2.38;;;17.40;99.90;;;;;;4996357;28;20034;-68
2023/07/13 01:23:10;;;;;;;9.40;2.55;;;17.40;99.90;;;;;;5010665;28;20149;-69
2023/07/13 01:25:37;;;;;;;12.30;2.83;;;17.30;99.90;;;;;;5000394;28;20088;-69
2023/07/13 01:28:04;;;;;;;10.18;2.10;;;17.30;99.90;;;;;;5004064;28;20443;-68
2023/07/13 01:30:30;;;;;;;11.88;2.28;;;17.20;99.90;;;;;;4994022;28;20034;-70
2023/07/13 01:32:56;;;;;;;11.73;2.45;;;17.20;99.90;;;;;;5010170;28;20049;-69
2023/07/13 01:35:22;;;;;;;12.63;2.33;;;17.20;99.90;;;;;;5000132;28;20030;-69
2023/07/13 01:37:47;;;;;;;9.13;1.85;;;17.20;99.90;;;;;;5005783;28;20026;-68
2023/07/13 01:40:13;;;;;;;12.55;2.50;;;17.10;99.90;;;;;;5004380;28;20488;-69
2023/07/13 01:42:39;;;;;;;16.02;2.40;;;17.10;99.90;;;;;;5002849;28;20041;-68
2023/07/13 01:45:05;;;;;;;7.75;2.10;;;17.10;99.90;;;;;;5011566;28;20026;-69
2023/07/13 01:47:31;;;;;;;10.00;2.28;;;17.10;99.90;;;;;;5006041;28;20070;-69
2023/07/13 01:49:57;;;;;;;10.80;2.05;;;17.10;99.90;;;;;;5004771;28;20035;-69
2023/07/13 01:52:23;;;;;;;9.07;2.15;;;17.10;99.90;;;;;;4997930;28;20446;-69
2023/07/13 01:54:48;;;;;;;5.13;1.98;;;17.00;99.90;;;;;;4998216;28;20062;-68
2023/07/13 01:57:14;;;;;;;11.63;2.70;;;17.10;99.90;;;;;;4994335;28;20425;-68
2023/07/13 01:59:40;;;;;;;9.38;2.35;;;17.10;99.90;;;;;;5007604;28;20101;-68
2023/07/13 02:02:06;;;;;;;10.60;2.42;;;17.10;99.90;;;;;;5003923;28;20055;-70
2023/07/13 02:04:31;;;;;;;6.68;1.80;;;17.10;99.90;;;;;;5007694;28;20049;-69
2023/07/13 02:06:57;;;;;;;8.65;1.95;;;17.10;99.90;;;;;;4993602;28;20106;-68
2023/07/13 02:09:22;;;;;;;9.50;1.92;;;17.10;99.90;;;;;;4998478;28;20049;-69
2023/07/13 02:11:48;;;;;;;10.45;2.45;;;17.10;99.90;;;;;;4997502;28;20390;-68
2023/07/13 02:14:15;;;;;;;11.48;2.30;;;17.10;99.90;;;;;;4996207;28;20097;-69
2023/07/13 02:16:41;;;;;;;9.98;2.58;;;17.00;99.90;;;;;;4996808;28;20429;-69
2023/07/13 02:19:07;;;;;;;8.98;2.13;;;17.10;99.90;;;;;;4999785;28;20101;-69
2023/07/13 02:21:32;;;;;;;9.63;2.97;;;17.10;99.90;;;;;;4999719;28;20366;-68
2023/07/13 02:23:58;;;;;;;12.30;2.47;;;17.20;99.90;;;;;;4991501;28;20041;-70
2023/07/13 02:26:24;;;;;;;9.52;2.72;;;17.20;99.90;;;;;;4997296;28;20255;-70
2023/07/13 02:28:49;;;;;;;8.27;2.17;;;17.30;99.90;;;;;;4997361;28;20038;-69
2023/07/13 02:31:15;;;;;;;13.55;2.78;;;17.30;99.90;;;;;;5000490;28;20026;-69
2023/07/13 02:33:41;;;;;;;10.45;2.30;;;17.30;99.90;;;;;;4996458;28;20034;-69
2023/07/13 02:36:07;;;;;;;10.10;2.42;;;17.40;99.90;;;;;;5008472;28;20109;-69
2023/07/13 02:38:35;;;;;;;10.82;2.72;;;17.40;99.90;;;;;;5008722;28;20072;-69
2023/07/13 02:41:04;;;;;;;11.25;2.75;;;17.50;99.90;;;;;;4998391;28;20062;-68
2023/07/13 02:43:29;;;;;;;15.70;3.28;;;17.60;99.90;;;;;;4999652;28;20108;-68
2023/07/13 02:45:55;;;;;;;13.77;3.15;;;17.60;99.90;;;;;;4997171;28;20049;-68
2023/07/13 02:48:21;;;;;;;12.00;2.55;;;17.60;99.90;;;;;;4999431;28;20030;-69
2023/07/13 02:50:46;;;;;;;11.40;3.10;;;17.70;99.90;;;;;;4997025;28;20057;-68
2023/07/13 02:53:12;;;;;;;11.10;2.63;;;17.70;99.90;;;;;;5003981;28;20046;-70
2023/07/13 02:55:39;;;;;;;12.38;2.70;;;17.80;99.90;;;;;;5006852;28;20030;-69
2023/07/13 02:58:05;;;;;;;14.25;2.80;;;17.80;99.90;;;;;;5000386;28;20483;-68
2023/07/13 03:00:31;;;;;;;12.65;2.97;;;17.90;99.90;;;;;;4997488;28;20062;-69
2023/07/13 03:02:57;;;;;;;14.43;2.75;;;17.90;99.90;;;;;;4997077;28;20138;-69
2023/07/13 03:05:23;;;;;;;11.35;2.78;;;18.00;99.90;;;;;;5004916;28;20026;-68
2023/07/13 03:07:49;;;;;;;15.15;3.22;;;18.00;99.90;;;;;;5008183;28;20056;-70
2023/07/13 03:10:16;;;;;;;18.17;3.03;;;18.00;99.90;;;;;;5004675;28;20054;-69
2023/07/13 03:12:41;;;;;;;8.43;2.47;;;18.00;99.90;;;;;;4996918;28;20474;-68
2023/07/13 03:15:07;;;;;;;11.00;2.80;;;18.00;99.90;;;;;;4999361;28;20049;-69
2023/07/13 03:17:33;;;;;;;14.75;3.33;;;18.00;99.90;;;;;;4998878;28;20029;-69
2023/07/13 03:19:58;;;;;;;12.73;3.20;;;18.10;99.90;;;;;;4997085;28;20027;-69
2023/07/13 03:22:24;;;;;;;14.55;3.05;;;18.10;99.90;;;;;;4997136;28;20038;-70
2023/07/13 03:24:49;;;;;;;16.85;3.42;;;18.10;99.90;;;;;;4996642;28;20050;-69
2023/07/13 03:27:16;;;;;;;14.13;2.63;;;18.20;99.90;;;;;;4994920;28;20030;-68
2023/07/13 03:29:42;;;;;;;13.75;2.58;;;18.10;99.90;;;;;;5003986;28;20498;-69
2023/07/13 03:32:08;;;;;;;11.98;2.65;;;18.20;99.90;;;;;;5011207;28;20176;-69
2023/07/13 03:34:34;;;;;;;14.25;3.13;;;18.20;99.90;;;;;;5011914;28;20109;-68
2023/07/13 03:36:59;;;;;;;9.55;2.63;;;18.20;99.90;;;;;;5010790;28;20109;-70
2023/07/13 03:39:25;;;;;;;9.60;2.35;;;18.20;99.90;;;;;;5008621;28;20031;-69
2023/07/13 03:41:50;;;;;;;16.92;2.85;;;18.20;99.90;;;;;;5011615;28;20037;-69
2023/07/13 03:44:17;;;;;;;13.02;3.20;;;18.10;99.90;;;;;;5011486;28;20030;-68
2023/07/13 03:46:43;;;;;;;17.02;3.00;;;18.20;99.90;;;;;;4997686;28;20026;-68
2023/07/13 03:49:09;;;;;;;15.07;3.28;;;18.10;99.90;;;;;;5002451;28;20105;-70
2023/07/13 03:51:35;;;;;;;12.27;2.35;;;18.10;99.90;;;;;;5001691;28;20478;-69
2023/07/13 03:54:02;;;;;;;13.35;2.97;;;18.10;99.90;;;;;;4999937;28;20022;-69
2023/07/13 03:56:28;;;;;;;10.50;2.55;;;18.00;99.90;;;;;;5000243;28;20053;-69
2023/07/13 03:58:54;;;;;;;15.05;2.97;;;18.00;99.90;;;;;;5000606;28;20058;-69
2023/07/13 04:01:21;;;;;;;13.85;2.85;;;18.00;99.90;;;;;;5003173;28;20048;-69
2023/07/13 04:03:47;;;;;;;14.15;2.90;;;18.10;99.90;;;;;;5000367;28;20106;-69
2023/07/13 04:06:22;;;;;;;14.43;2.72;;;18.10;99.90;;;;;;4994498;28;20113;-68
2023/07/13 04:08:52;;;;;;;9.63;2.47;;;18.20;99.90;;;;;;5000117;28;20031;-69
2023/07/13 04:11:19;;;;;;;16.63;3.63;;;18.20;99.90;;;;;;4996585;28;20125;-69
2023/07/13 04:13:45;;;;;;;16.67;3.17;;;18.20;99.90;;;;;;5000677;28;20034;-69
2023/07/13 04:16:11;;;;;;;13.07;2.95;;;18.20;99.90;;;;;;5000115;28;20030;-69
2023/07/13 04:18:37;;;;;;;14.35;3.08;;;18.20;99.90;;;;;;5000000;28;20462;-68
2023/07/13 04:21:03;;;;;;;11.88;3.55;;;18.30;99.90;;;;;;5001284;28;20149;-70
2023/07/13 04:23:29;;;;;;;14.50;3.03;;;18.30;99.90;;;;;;5002550;28;20025;-69
2023/07/13 04:25:55;;;;;;;13.88;3.58;;;18.40;99.90;;;;;;4999754;28;20174;-69
2023/07/13 04:28:22;;;;;;;12.15;3.13;;;18.40;99.90;;;;;;5000092;28;20094;-69
2023/07/13 04:30:48;;;;;;;11.55;2.70;;;18.50;99.90;;;;;;4992606;28;20030;-69
2023/07/13 04:33:16;;;;;;;17.45;3.05;;;18.50;99.90;;;;;;5002814;28;20249;-68
2023/07/13 04:35:43;;;;;;;18.63;3.40;;;18.50;99.90;;;;;;5000505;28;20030;-69
2023/07/13 04:38:11;;;;;;;12.80;3.13;;;18.50;99.90;;;;;;4999171;28;20058;-69
2023/07/13 04:40:37;;;;;;;11.32;3.08;;;18.50;99.90;;;;;;4999753;28;20487;-68
2023/07/13 04:43:02;;;;;;;13.70;2.95;;;18.60;99.90;;;;;;5001135;28;20026;-68
2023/07/13 04:45:28;;;;;;;12.55;2.50;;;18.60;99.90;;;;;;5001846;28;20458;-69
2023/07/13 04:47:53;;;;;;;19.58;3.50;;;18.70;99.90;;;;;;4994470;28;20459;-69
2023/07/13 04:50:23;;;;;;;10.45;2.60;;;18.60;99.90;;;;;;4999594;28;20097;-69
2023/07/13 04:52:52;;;;;;;14.00;2.90;;;18.60;99.90;;;;;;4996040;28;20046;-70
2023/07/13 04:55:19;;;;;;;12.77;3.05;;;18.60;99.90;;;;;;4988570;28;20034;-68
2023/07/13 04:57:45;;;;;;;13.15;2.90;;;18.60;99.90;;;;;;4989736;28;20037;-68
2023/07/13 05:00:12;;;;;;;11.80;2.85;;;18.70;99.90;;;;;;4988692;28;20019;-69
2023/07/13 05:02:38;;;;;;;16.58;3.47;;;18.70;99.90;;;;;;4990290;28;20061;-70
2023/07/13 05:05:05;;;;;;;11.65;3.25;;;18.70;99.90;;;;;;4994733;28;20030;-69
2023/07/13 05:07:32;;;;;;;13.32;3.33;;;18.70;99.90;;;;;;5011363;28;20026;-68
2023/07/13 05:09:59;;;;;;;12.80;3.28;;;18.70;99.90;;;;;;4999892;28;20033;-69
2023/07/13 05:12:24;;;;;;;11.85;2.90;;;18.70;99.90;;;;;;5006269;28;20093;-70
2023/07/13 05:14:50;;;;;;;9.48;2.55;;;18.80;99.90;;;;;;5006901;28;20021;-69
2023/07/13 05:17:16;;;;;;;10.55;3.72;;;18.80;99.90;;;;;;4998737;28;20065;-70
2023/07/13 05:19:41;;;;;;;10.23;2.83;;;18.90;99.90;;;;;;5010007;28;20030;-69
2023/07/13 05:22:07;;;;;;;15.65;3.35;;;18.90;99.90;;;;;;5000615;28;20458;-70
2023/07/13 05:24:33;;;;;;;13.05;2.75;;;19.00;99.90;;;;;;5004877;28;20092;-70
2023/07/13 05:26:59;;;;;;;13.30;2.75;;;19.00;99.90;;;;;;5007952;28;20112;-69
2023/07/13 05:29:24;;;;;;;8.88;2.53;;;19.00;99.90;;;;;;4997935;28;20033;-70
2023/07/13 05:31:50;;;;;;;9.35;3.13;;;19.10;99.90;;;;;;5004679;28;20038;-70
2023/07/13 05:34:17;;;;;;;9.02;2.88;;;19.10;99.90;;;;;;5007035;28;20025;-69
2023/07/13 05:36:42;;;;;;;12.95;3.03;;;19.10;99.90;;;;;;5005392;28;20731;-69
2023/07/13 05:39:08;;;;;;;11.10;2.90;;;19.10;99.90;;;;;;5014411;28;20104;-69
2023/07/13 05:41:34;;;;;;;7.65;2.55;;;19.10;99.90;;;;;;4997959;28;20038;-70
2023/07/13 05:43:59;;;;;;;9.52;2.63;;;19.20;99.90;;;;;;5009510;28;20019;-70
2023/07/13 05:46:25;;;;;;;7.38;2.60;;;19.20;99.90;;;;;;5003016;28;20076;-70
2023/07/13 05:48:51;;;;;;;9.80;2.38;;;19.30;99.90;;;;;;4996544;28;20397;-71
2023/07/13 05:51:16;;;;;;;11.32;2.60;;;19.40;99.90;;;;;;5009675;28;20030;-71
2023/07/13 05:53:42;;;;;;;10.80;2.58;;;19.50;99.90;;;;;;4997731;28;20108;-69
2023/07/13 05:56:08;;;;;;;10.88;2.50;;;19.50;99.90;;;;;;5007794;28;20061;-70
2023/07/13 05:58:34;;;;;;;11.77;2.90;;;19.60;99.90;;;;;;5004006;28;20057;-70
2023/07/13 06:01:06;;;;;;;12.43;3.67;;;19.60;99.90;;;;;;5000528;28;20037;-68
2023/07/13 06:03:32;;;;;;;10.57;2.67;;;19.70;99.90;;;;;;5010576;28;20026;-69
2023/07/13 06:06:00;;;;;;;10.32;2.45;;;19.70;99.90;;;;;;4993652;28;20030;-69
2023/07/13 06:08:26;;;;;;;11.27;3.03;;;19.80;99.90;;;;;;5004942;28;20427;-69
2023/07/13 06:10:51;;;;;;;9.93;2.88;;;19.80;99.90;;;;;;4994429;28;20030;-68
2023/07/13 06:13:19;;;;;;;7.15;2.05;;;19.90;99.90;;;;;;4994239;28;20048;-68
2023/07/13 06:15:48;;;;;;;10.45;2.90;;;19.90;99.90;;;;;;4994198;28;20037;-70
2023/07/13 06:18:14;;;;;;;10.57;2.70;;;20.00;99.90;;;;;;4994266;28;20037;-69
2023/07/13 06:20:40;;;;;;;10.73;2.35;;;20.20;99.90;;;;;;4994736;28;20359;-69
2023/07/13 06:23:05;;;;;;;15.27;2.60;;;20.30;99.90;;;;;;4994145;28;20117;-70
2023/07/13 06:25:31;;;;;;;11.10;2.47;;;20.30;99.90;;;;;;4993644;28;20192;-69
2023/07/13 06:27:56;;;;;;;8.90;2.53;;;20.40;99.90;;;;;;4994414;28;20113;-69
2023/07/13 06:30:22;;;;;;;10.80;2.45;;;20.50;99.90;;;;;;4993685;28;20161;-69
2023/07/13 06:32:47;;;;;;;12.20;2.50;;;20.40;99.90;;;;;;4993875;28;20498;-70
2023/07/13 06:35:13;;;;;;;9.85;2.60;;;20.30;99.90;;;;;;4993765;28;20026;-69
2023/07/13 06:37:39;;;;;;;10.90;2.50;;;20.40;99.90;;;;;;4993811;28;20026;-69
2023/07/13 06:40:05;;;;;;;8.93;2.40;;;20.40;99.90;;;;;;4993855;28;20030;-69
2023/07/13 06:42:31;;;;;;;13.65;3.13;;;20.50;99.90;;;;;;4993625;28;20509;-68
2023/07/13 06:44:57;;;;;;;5.55;2.58;;;20.60;99.90;;;;;;4993596;28;20018;-69
2023/07/13 06:47:22;;;;;;;7.55;2.50;;;20.70;99.90;;;;;;4993772;28;20093;-69
2023/07/13 06:49:48;;;;;;;7.90;2.13;;;20.80;99.90;;;;;;4989568;28;20093;-69
2023/07/13 06:52:13;;;;;;;6.30;2.03;;;20.80;99.90;;;;;;4993682;28;20441;-69
2023/07/13 06:54:39;;;;;;;5.55;1.75;;;21.00;99.90;;;;;;4993673;28;20038;-69
2023/07/13 06:57:05;;;;;;;7.00;1.90;;;21.40;99.90;;;;;;4993650;28;20033;-69
2023/07/13 06:59:31;;;;;;;9.57;2.08;;;22.10;99.90;;;;;;4993106;28;20030;-69
2023/07/13 07:01:56;;;;;;;9.07;2.33;;;22.70;99.90;;;;;;4994748;28;20196;-69
2023/07/13 07:04:22;;;;;;;9.23;2.13;;;23.20;99.90;;;;;;4997316;28;20526;-69
2023/07/13 07:06:47;;;;;;;8.32;2.15;;;23.20;99.90;;;;;;4997209;28;20031;-69
2023/07/13 07:09:13;;;;;;;13.25;2.50;;;23.00;99.90;;;;;;4997313;28;20034;-69
2023/07/13 07:11:39;;;;;;;7.72;2.10;;;22.90;99.90;;;;;;4992526;28;20057;-70
2023/07/13 07:14:05;;;;;;;11.15;2.05;;;23.00;99.90;;;;;;4997442;28;20041;-68
2023/07/13 07:16:30;;;;;;;7.75;2.35;;;23.60;99.90;;;;;;4997100;28;20382;-69
2023/07/13 07:18:56;;;;;;;5.57;1.63;;;24.80;99.90;;;;;;4997511;28;20026;-69
2023/07/13 07:21:23;;;;;;;5.63;1.90;;;26.20;99.00;;;;;;4997636;28;20037;-69
2023/07/13 07:23:48;;;;;;;8.07;2.10;;;26.80;97.30;;;;;;4997644;28;20057;-68
2023/07/13 07:26:14;;;;;;;7.38;2.00;;;26.70;96.90;;;;;;4997711;28;20383;-69
2023/07/13 07:28:40;;;;;;;7.22;2.05;;;26.40;96.80;;;;;;4997739;28;20034;-69
2023/07/13 07:31:06;;;;;;;10.40;2.03;;;26.10;97.20;;;;;;4997468;28;20026;-70
2023/07/13 07:33:33;;;;;;;7.13;2.22;;;26.20;97.30;;;;;;4997470;28;20125;-69
2023/07/13 07:35:58;;;;;;;8.82;2.10;;;26.60;96.60;;;;;;4997322;28;20027;-70
2023/07/13 07:38:24;;;;;;;7.00;2.00;;;26.80;96.10;;;;;;4997096;28;20037;-71
2023/07/13 07:40:49;;;;;;;7.97;2.25;;;26.90;95.80;;;;;;4996943;28;20026;-70
2023/07/13 07:43:15;;;;;;;7.75;1.88;;;27.00;95.20;;;;;;4993169;28;20030;-70
2023/07/13 07:45:41;;;;;;;8.55;2.28;;;27.20;95.60;;;;;;4993268;28;20386;-69
2023/07/13 07:48:09;;;;;;;4.93;2.03;;;27.40;94.40;;;;;;4996682;28;20474;-69
2023/07/13 07:50:35;;;;;;;7.30;1.80;;;27.50;94.20;;;;;;4997167;28;20483;-68
2023/07/13 07:53:02;;;;;;;10.13;2.53;;;27.70;93.90;;;;;;4996976;28;20049;-69
2023/07/13 07:55:27;;;;;;;9.98;2.30;;;27.80;94.00;;;;;;4997080;28;20031;-70
2023/07/13 07:57:53;;;;;;;7.20;2.13;;;27.90;94.00;;;;;;4997029;28;20049;-69
2023/07/13 08:00:19;;;;;;;11.43;2.60;;;28.00;93.90;;;;;;4996783;28;20034;-69
2023/07/13 08:02:45;;;;;;;10.32;2.53;;;27.90;93.50;;;;;;4996589;28;20375;-69
2023/07/13 08:05:11;;;;;;;6.05;2.30;;;27.80;93.70;;;;;;4996193;28;20030;-69
2023/07/13 08:07:38;;;;;;;8.38;2.10;;;27.50;93.30;;;;;;4996521;28;20068;-69
2023/07/13 08:10:05;;;;;;;10.68;2.10;;;27.30;94.00;;;;;;4996331;28;20026;-69
2023/07/13 08:12:37;;;;;;;9.65;2.33;;;27.20;94.40;;;;;;4995933;28;20089;-70
2023/07/13 08:15:04;;;;;;;9.57;2.45;;;26.80;94.90;;;;;;4995595;28;20038;-69
2023/07/13 08:17:29;;;;;;;10.27;2.47;;;27.10;94.70;;;;;;4995743;28;20029;-70
2023/07/13 08:19:55;;;;;;;11.35;2.90;;;27.10;94.30;;;;;;4998835;28;20031;-70
2023/07/13 08:22:20;;;;;;;9.50;2.53;;;27.20;94.40;;;;;;5015882;28;20053;-69
2023/07/13 08:24:47;;;;;;;9.30;2.88;;;27.40;93.80;;;;;;5005676;28;20046;-69
2023/07/13 08:27:13;;;;;;;9.50;2.45;;;27.30;94.10;;;;;;4995225;28;20042;-69
2023/07/13 08:29:39;;;;;;;7.43;2.30;;;27.30;94.10;;;;;;4996039;28;20033;-70
2023/07/13 08:32:08;;;;;;;10.85;2.20;;;27.00;93.70;;;;;;4996118;28;20034;-69
2023/07/13 08:34:34;;;;;;;10.30;2.72;;;26.90;94.20;;;;;;5005100;28;20026;-69
2023/07/13 08:37:01;;;;;;;7.47;2.38;;;27.30;93.40;;;;;;4996184;28;20042;-69
2023/07/13 08:39:27;;;;;;;10.23;2.78;;;27.60;92.90;;;;;;4993517;28;20442;-68
2023/07/13 08:41:59;;;;;;;8.55;2.33;;;27.80;92.50;;;;;;4994711;28;20434;-68
2023/07/13 08:44:54;;;;;;;10.07;2.33;;;27.70;92.70;;;;;;5004308;28;20029;-68
2023/07/13 08:47:22;;;;;;;6.20;2.22;;;27.50;92.90;;;;;;5004272;28;20052;-68
2023/07/13 08:49:48;;;;;;;6.68;2.28;;;27.50;93.10;;;;;;4998050;28;20034;-68
2023/07/13 08:52:20;;;;;;;11.07;2.38;;;27.70;93.30;;;;;;5014714;28;20133;-70
2023/07/13 08:54:51;;;;;;;8.77;2.22;;;27.80;93.00;;;;;;5001713;28;20030;-69
2023/07/13 08:57:21;;;;;;;7.85;2.50;;;28.50;92.60;;;;;;4995888;28;20053;-69
2023/07/13 08:59:47;;;;;;;5.90;1.58;;;29.70;91.60;;;;;;4995462;28;20041;-69
2023/07/13 09:02:33;;;;;;;8.02;2.03;;;30.90;88.50;;;;;;4995693;28;20130;-69
2023/07/13 09:05:13;;;;;;;4.72;2.13;;;31.40;86.50;;;;;;4994887;28;20057;-69
2023/07/13 09:07:53;;;;;;;6.72;2.60;;;31.80;87.20;;;;;;4994195;28;20037;-68
2023/07/13 09:11:09;;;;;;;7.53;2.42;;;32.20;86.70;;;;;;4995609;28;20053;-69
2023/07/13 09:14:05;;;;;;;9.20;2.35;;;33.00;83.60;;;;;;4963791;28;20411;-69
2023/07/13 09:16:31;;;;;;;9.63;2.42;;;32.60;84.10;;;;;;4976063;28;20097;-68
2023/07/13 09:19:02;;;;;;;8.13;2.40;;;31.90;85.70;;;;;;4975916;28;20027;-68
2023/07/13 09:21:37;;;;;;;7.72;2.20;;;31.60;86.40;;;;;;4976266;28;20037;-68
2023/07/13 09:24:45;;;;;;;7.93;2.22;;;31.30;85.80;;;;;;4982132;28;20037;-67
2023/07/13 09:27:19;;;;;;;9.70;2.25;;;30.90;85.30;;;;;;4997228;28;20080;-68
2023/07/13 09:29:50;;;;;;;5.88;2.13;;;30.90;84.90;;;;;;4994263;28;20030;-68
2023/07/13 09:32:18;;;;;;;;;;;30.90;84.10;;;;;;4996389;28;20042;-67
2023/07/13 09:34:54;;;;;;;9.30;2.35;;;30.60;85.60;;;;;;4994868;28;19960;-68
2023/07/13 09:37:23;;;;;;;10.88;2.50;;;31.00;85.00;;;;;;4994802;28;20034;-68
2023/07/13 09:39:50;;;;;;;11.98;2.35;;;31.60;83.50;;;;;;4994475;28;20026;-69
2023/07/13 09:42:21;;;;;;;9.43;2.03;;;32.00;82.40;;;;;;4993266;28;20026;-68
2023/07/13 09:44:59;;;;;;;8.60;3.03;;;32.00;82.00;;;;;;4994796;28;20378;-68
2023/07/13 09:47:37;;;;;;;7.07;2.10;;;32.60;81.70;;;;;;4994730;28;20100;-70
2023/07/13 09:50:09;;;;;;;7.97;2.47;;;33.20;81.60;;;;;;4975308;28;20499;-68
2023/07/13 09:52:43;;;;;;;11.48;2.30;;;33.80;80.70;;;;;;4987703;28;20453;-68
2023/07/13 09:55:25;;;;;;;10.27;2.65;;;34.40;78.90;;;;;;4994873;28;20045;-68
2023/07/13 09:57:52;;;;;;;10.75;2.55;;;34.20;79.20;;;;;;4995004;28;20030;-68
2023/07/13 10:00:36;;;;;;;7.90;2.30;;;33.50;80.20;;;;;;4994533;28;20037;-70
2023/07/13 10:03:23;;;;;;;10.30;2.55;;;33.50;79.80;;;;;;4994095;28;20137;-69
2023/07/13 10:05:51;;;;;;;9.18;2.40;;;33.50;79.90;;;;;;4994813;28;20057;-69
2023/07/13 10:08:21;;;;;;;11.02;2.88;;;33.90;80.20;;;;;;4994572;28;20026;-70
2023/07/13 10:10:52;;;;;;;9.25;3.00;;;34.00;80.10;;;;;;4992387;28;20057;-69
2023/07/13 10:13:36;;;;;;;9.75;2.50;;;34.30;78.10;;;;;;4993313;28;20045;-69
2023/07/13 10:16:05;;;;;;;7.18;2.47;;;34.40;77.80;;;;;;4994032;28;20038;-69
2023/07/13 10:18:57;;;;;;;8.02;2.42;;;34.60;76.70;;;;;;4994453;28;20038;-69
2023/07/13 10:21:34;;;;;;;8.25;2.45;;;35.00;75.40;;;;;;4994540;28;20030;-69
2023/07/13 10:24:12;;;;;;;6.55;2.00;;;35.40;76.80;;;;;;4993950;28;20041;-69
2023/07/13 10:26:41;;;;;;;10.48;2.50;;;35.30;74.40;;;;;;4992962;28;20074;-70
2023/07/13 10:29:13;;;;;;;7.38;2.15;;;35.30;77.00;;;;;;4993599;28;20034;-70
2023/07/13 10:31:40;;;;;;;7.80;2.17;;;35.30;75.80;;;;;;4994133;28;20073;-70
2023/07/13 10:34:10;;;;;;;11.23;2.70;;;35.70;75.40;;;;;;4992164;28;20109;-69
2023/07/13 10:36:42;;;;;;;8.73;2.42;;;36.00;74.90;;;;;;4993145;28;20116;-69
2023/07/13 10:39:19;;;;;;;10.15;2.50;;;36.40;74.50;;;;;;4994193;28;20479;-68
2023/07/13 10:41:50;;;;;;;7.88;2.28;;;36.90;73.50;;;;;;4994524;28;20030;-68
2023/07/13 10:44:29;;;;;;;7.15;2.47;;;36.80;71.80;;;;;;4993964;28;20026;-69
2023/07/13 10:47:00;;;;;;;8.45;2.75;;;36.50;72.10;;;;;;4993163;28;20038;-71
2023/07/13 10:49:33;;;;;;;6.57;2.50;;;36.30;73.20;;;;;;4993714;28;20113;-69
2023/07/13 10:51:59;;;;;;;7.60;2.30;;;36.10;73.20;;;;;;4997039;28;20124;-68
2023/07/13 10:54:32;;;;;;;5.68;2.00;;;36.00;72.30;;;;;;5011502;28;20109;-70
2023/07/13 10:57:12;;;;;;;8.60;2.80;;;35.20;73.50;;;;;;5013552;28;20462;-68
2023/07/13 10:59:38;;;;;;;9.80;2.60;;;34.50;75.20;;;;;;5007386;28;20034;-70
2023/07/13 11:02:06;;;;;;;10.82;2.22;;;33.70;76.30;;;;;;4994288;28;20036;-69
2023/07/13 11:04:53;;;;;;;10.23;2.53;;;33.00;75.70;;;;;;4993532;28;20507;-72
2023/07/13 11:07:31;;;;;;;9.52;2.30;;;32.10;77.30;;;;;;4994740;28;20034;-70
2023/07/13 11:09:59;;;;;;;8.85;2.90;;;31.30;78.50;;;;;;4993304;28;20488;-71
2023/07/13 11:12:26;;;;;;;8.43;2.22;;;31.40;79.60;;;;;;4992940;28;20073;-69
2023/07/13 11:14:54;;;;;;;5.00;1.95;;;32.00;78.00;;;;;;4991813;28;20039;-69
2023/07/13 11:17:48;;;;;;;6.60;2.03;;;32.40;75.30;;;;;;4993009;28;20057;-69
2023/07/13 11:20:14;;;;;;;8.18;2.25;;;32.70;77.00;;;;;;4993184;28;20037;-70
2023/07/13 11:22:47;;;;;;;9.63;2.00;;;33.30;76.10;;;;;;4993073;28;20394;-70
2023/07/13 11:25:30;;;;;;;8.27;2.05;;;34.10;74.80;;;;;;4988680;28;20057;-70
2023/07/13 11:28:11;;;;;;;7.35;2.40;;;34.30;73.20;;;;;;4992714;28;20088;-69
2023/07/13 11:30:40;;;;;;;6.95;2.05;;;34.10;74.10;;;;;;4992733;28;20038;-70
2023/07/13 11:33:26;;;;;;;6.38;2.60;;;33.70;74.20;;;;;;4992337;28;20448;-70
2023/07/13 11:36:02;;;;;;;6.35;2.22;;;33.70;73.80;;;;;;4974106;28;20081;-70
2023/07/13 11:38:42;;;;;;;6.43;1.75;;;33.80;73.90;;;;;;4985866;28;20058;-70
2023/07/13 11:41:30;;;;;;;8.57;2.33;;;33.30;74.40;;;;;;4991580;28;20046;-70
2023/07/13 11:44:05;;;;;;;10.80;2.20;;;33.10;75.00;;;;;;4988847;28;20038;-70
2023/07/13 11:46:31;;;;;;;9.27;2.03;;;32.90;75.50;;;;;;4992546;28;20030;-69
2023/07/13 11:48:56;;;;;;;7.38;2.03;;;33.00;74.50;;;;;;4995470;28;20072;-69
2023/07/13 11:51:35;;;;;;;7.20;1.92;;;32.70;75.10;;;;;;4992240;28;20381;-69
2023/07/13 11:54:07;;;;;;;5.78;2.13;;;32.10;75.90;;;;;;4977356;28;20050;-69
2023/07/13 11:56:34;;;;;;;4.90;1.95;;;32.00;76.20;;;;;;4977064;28;20027;-69
2023/07/13 11:59:05;;;;;;;9.00;2.10;;;32.50;75.90;;;;;;4993211;28;20249;-69
2023/07/13 12:01:32;;;;;;;8.85;2.63;;;32.90;76.20;;;;;;4992879;28;20069;-69
2023/07/13 12:04:01;;;;;;;4.85;2.00;;;32.90;76.60;;;;;;5004027;28;20105;-71
2023/07/13 12:06:39;;;;;;;4.95;1.95;;;33.00;76.30;;;;;;5008522;28;20041;-69
2023/07/13 12:09:12;;;;;;;11.63;2.33;;;32.50;77.10;;;;;;5015871;28;20030;-70
2023/07/13 12:11:41;;;;;;;8.93;2.38;;;32.50;77.40;;;;;;5015529;28;20029;-70
2023/07/13 12:14:17;;;;;;;5.65;2.13;;;32.20;78.00;;;;;;5015154;28;20041;-69
2023/07/13 12:16:44;;;;;;;5.93;2.60;;;32.00;78.40;;;;;;5015193;28;20510;-69
2023/07/13 12:19:27;;;;;;;7.15;2.22;;;32.30;77.50;;;;;;5014712;28;20029;-69
2023/07/13 12:21:59;;;;;;;7.43;2.03;;;32.50;76.90;;;;;;4980697;28;20038;-69
2023/07/13 12:24:26;;;;;;;5.78;2.10;;;31.80;78.00;;;;;;4995295;28;20047;-70
2023/07/13 12:27:01;;;;;;;5.10;1.98;;;31.60;78.90;;;;;;4996390;28;20125;-68
2023/07/13 12:29:26;;;;;;;10.27;2.20;;;32.10;79.10;;;;;;4996902;28;20038;-68
2023/07/13 12:31:52;;;;;;;3.88;2.20;;;32.60;78.30;;;;;;4996104;28;20034;-69
2023/07/13 12:34:22;;;;;;;10.65;2.50;;;32.20;78.50;;;;;;4996106;28;20471;-71
2023/07/13 12:36:51;;;;;;;8.07;2.28;;;31.60;79.50;;;;;;4976739;28;20054;-70
2023/07/13 12:39:35;;;;;;;6.18;2.20;;;30.80;80.60;;;;;;4976295;28;20073;-69
2023/07/13 12:42:28;;;;;;;8.35;2.10;;;30.70;80.70;;;;;;4976414;28;20403;-69
2023/07/13 12:44:58;;;;;;;6.95;2.25;;;30.10;80.80;;;;;;4980673;28;20035;-69
2023/07/13 12:47:24;;;;;;;6.03;2.22;;;29.40;82.10;;;;;;4995729;28;20057;-69
2023/07/13 12:49:58;;;;;;;11.05;2.80;;;28.90;82.70;;;;;;4995950;28;20406;-70
2023/07/13 12:52:32;;;;;;;6.32;2.35;;;28.30;84.20;;;;;;4995764;28;20042;-70